Time;durP1;ratioP1;P1;durP2;ratioP2;P2;SDS_P1;SDS_P2;PMS_P1;PMS_P2;Temp;Humidity;BMP_temperature;BMP_pressure;BME280_temperature;BME280_humidity;BME280_pressure;Samples;Min_cycle;Max_cycle;Signal;HPM_P1;HPM_P2
2023/03/19 00:02:08;;;;;;;16.70;8.38;;;4.60;95.70;;;;;;5074672;28;20055;-68
2023/03/19 00:04:34;;;;;;;16.40;8.63;;;4.50;96.50;;;;;;5075496;28;20024;-68
2023/03/19 00:07:00;;;;;;;13.48;8.27;;;4.50;96.00;;;;;;5074450;28;20028;-68
2023/03/19 00:09:26;;;;;;;15.05;7.80;;;4.50;96.10;;;;;;5075484;28;20111;-68
2023/03/19 00:11:52;;;;;;;16.73;7.85;;;4.60;96.80;;;;;;5073926;28;20064;-68
2023/03/19 00:14:18;;;;;;;14.13;8.32;;;4.70;96.40;;;;;;5074209;28;20409;-68
2023/03/19 00:16:43;;;;;;;13.65;7.60;;;4.80;95.90;;;;;;5074221;28;20028;-67
2023/03/19 00:19:09;;;;;;;13.32;7.85;;;4.90;95.60;;;;;;5073824;28;20056;-68
2023/03/19 00:21:35;;;;;;;13.95;7.32;;;4.90;96.80;;;;;;5073531;28;20109;-68
2023/03/19 00:24:01;;;;;;;15.70;7.85;;;4.80;96.70;;;;;;5074576;28;20036;-70
2023/03/19 00:26:29;;;;;;;15.13;7.78;;;4.80;97.20;;;;;;5076498;28;20030;-76
2023/03/19 00:28:55;;;;;;;15.50;7.85;;;4.70;98.60;;;;;;5076883;28;20024;-70
2023/03/19 00:31:21;;;;;;;15.45;8.50;;;4.70;98.60;;;;;;5074762;28;20475;-68
2023/03/19 00:33:47;;;;;;;13.57;7.93;;;4.60;98.60;;;;;;5075288;28;20028;-68
2023/03/19 00:36:15;;;;;;;15.93;8.85;;;4.60;99.30;;;;;;5074473;28;20025;-68
2023/03/19 00:38:42;;;;;;;13.65;8.27;;;4.50;99.90;;;;;;5075458;28;20103;-68
2023/03/19 00:41:07;;;;;;;14.10;8.38;;;4.50;99.90;;;;;;5075347;28;20035;-68
2023/03/19 00:43:33;;;;;;;15.70;8.40;;;4.50;99.90;;;;;;5075467;28;20033;-68
2023/03/19 00:46:00;;;;;;;15.23;8.65;;;4.40;99.90;;;;;;5075651;28;20101;-68
2023/03/19 00:48:26;;;;;;;18.95;8.32;;;4.40;99.90;;;;;;5075939;28;20025;-68
2023/03/19 00:50:51;;;;;;;16.30;7.88;;;4.30;99.90;;;;;;5075012;28;20073;-68
2023/03/19 00:53:17;;;;;;;16.27;8.55;;;4.30;99.90;;;;;;5074735;28;20036;-68
2023/03/19 00:55:43;;;;;;;17.70;8.82;;;4.30;99.90;;;;;;5073421;28;20025;-68
2023/03/19 00:58:09;;;;;;;13.80;8.00;;;4.40;99.90;;;;;;5072538;28;20139;-68
2023/03/19 01:00:37;;;;;;;17.05;8.63;;;4.40;99.90;;;;;;5072526;28;20029;-68
2023/03/19 01:03:03;;;;;;;15.40;8.82;;;4.40;99.90;;;;;;5074224;28;20443;-68
2023/03/19 01:05:29;;;;;;;15.38;9.40;;;4.30;99.90;;;;;;5073485;28;20098;-68
2023/03/19 01:07:55;;;;;;;15.02;8.35;;;4.40;99.90;;;;;;5073809;28;20464;-68
2023/03/19 01:10:21;;;;;;;19.80;8.82;;;4.40;99.90;;;;;;5074331;28;20043;-68
2023/03/19 01:12:47;;;;;;;18.80;8.55;;;4.40;99.90;;;;;;5074648;28;20036;-68
2023/03/19 01:15:13;;;;;;;12.80;7.72;;;4.30;99.90;;;;;;5074685;28;20051;-69
2023/03/19 01:17:41;;;;;;;13.30;7.88;;;4.20;99.90;;;;;;5074290;28;20421;-68
2023/03/19 01:20:11;;;;;;;17.23;7.57;;;4.00;99.90;;;;;;5074666;28;20021;-68
2023/03/19 01:22:42;;;;;;;15.30;8.43;;;3.80;99.90;;;;;;5073498;28;20040;-68
2023/03/19 01:25:08;;;;;;;13.77;7.93;;;3.80;99.90;;;;;;5074211;28;20495;-68
2023/03/19 01:27:35;;;;;;;15.25;8.25;;;3.70;99.90;;;;;;5073628;28;20468;-68
2023/03/19 01:30:01;;;;;;;14.23;8.07;;;3.70;99.90;;;;;;5075721;28;20024;-68
2023/03/19 01:32:26;;;;;;;21.88;8.98;;;3.60;99.90;;;;;;5072726;28;20032;-68
2023/03/19 01:34:52;;;;;;;16.48;9.18;;;3.50;99.90;;;;;;5073400;28;20457;-68
2023/03/19 01:37:19;;;;;;;14.40;8.18;;;3.40;99.90;;;;;;5073381;28;20464;-67
2023/03/19 01:39:45;;;;;;;14.85;8.68;;;3.40;99.90;;;;;;5073375;28;20031;-68
2023/03/19 01:42:12;;;;;;;13.93;7.60;;;3.40;99.90;;;;;;5073337;28;20372;-68
2023/03/19 01:44:39;;;;;;;17.52;9.35;;;3.40;99.90;;;;;;5073313;28;20024;-68
2023/03/19 01:47:15;;;;;;;16.02;8.38;;;3.30;99.90;;;;;;5073667;28;20056;-68
2023/03/19 01:49:41;;;;;;;12.57;7.88;;;3.30;99.90;;;;;;5076747;28;20021;-68
2023/03/19 01:52:08;;;;;;;13.73;7.93;;;3.30;99.90;;;;;;5078940;28;20197;-68
2023/03/19 01:54:35;;;;;;;16.77;9.00;;;3.30;99.90;;;;;;5078952;28;20027;-68
2023/03/19 01:57:07;;;;;;;13.30;8.63;;;3.30;99.90;;;;;;5078561;28;20073;-70
2023/03/19 01:59:42;;;;;;;17.52;8.80;;;3.20;99.90;;;;;;5078859;28;20112;-68
2023/03/19 02:02:24;;;;;;;20.90;9.07;;;3.20;99.90;;;;;;5077480;28;20049;-68
2023/03/19 02:04:55;;;;;;;25.67;9.23;;;3.20;99.90;;;;;;5078487;28;20039;-68
2023/03/19 02:07:21;;;;;;;16.50;8.43;;;3.20;99.90;;;;;;5077881;28;20464;-68
2023/03/19 02:09:47;;;;;;;13.55;8.25;;;3.20;99.90;;;;;;5075789;28;20178;-67
2023/03/19 02:12:15;;;;;;;16.15;8.35;;;3.20;99.90;;;;;;5076437;28;20036;-68
2023/03/19 02:14:41;;;;;;;12.18;7.80;;;3.30;99.90;;;;;;5076313;28;20540;-67
2023/03/19 02:17:07;;;;;;;13.63;8.18;;;3.30;99.90;;;;;;5076581;28;20067;-67
2023/03/19 02:19:47;;;;;;;15.75;8.50;;;3.30;99.90;;;;;;5076524;28;20360;-67
2023/03/19 02:22:15;;;;;;;15.30;8.35;;;3.30;99.90;;;;;;5076485;28;20025;-68
2023/03/19 02:24:58;;;;;;;10.75;5.93;;;3.30;99.90;;;;;;5077551;28;20032;-69
2023/03/19 02:27:24;;;;;;;16.60;8.93;;;3.30;99.90;;;;;;5076803;28;20476;-68
2023/03/19 02:29:50;;;;;;;13.05;8.63;;;3.20;99.90;;;;;;5076396;28;20109;-68
2023/03/19 02:32:15;;;;;;;15.48;9.57;;;3.20;99.90;;;;;;5077076;28;20032;-68
2023/03/19 02:34:42;;;;;;;18.52;9.85;;;3.10;99.90;;;;;;5076825;28;20029;-68
2023/03/19 02:37:08;;;;;;;16.77;9.13;;;3.10;99.90;;;;;;5075531;28;20120;-68
2023/03/19 02:40:03;;;;;;;23.65;10.32;;;3.10;99.90;;;;;;5075706;28;20052;-68
2023/03/19 02:42:29;;;;;;;19.38;9.45;;;3.10;99.90;;;;;;5074339;28;20090;-68
2023/03/19 02:44:56;;;;;;;15.70;9.65;;;3.00;99.90;;;;;;5076093;28;20047;-68
2023/03/19 02:47:23;;;;;;;15.50;9.23;;;3.00;99.90;;;;;;5076045;28;20039;-67
2023/03/19 02:49:49;;;;;;;17.65;10.02;;;2.90;99.90;;;;;;5075717;28;20083;-67
2023/03/19 02:52:15;;;;;;;15.27;8.77;;;2.90;99.90;;;;;;5075920;28;20033;-67
2023/03/19 02:54:41;;;;;;;18.27;9.45;;;2.80;99.90;;;;;;5074938;28;20431;-67
2023/03/19 02:57:07;;;;;;;15.20;9.73;;;2.80;99.90;;;;;;5075843;28;20024;-67
2023/03/19 02:59:32;;;;;;;15.13;8.73;;;2.70;99.90;;;;;;5075465;28;20502;-68
2023/03/19 03:01:58;;;;;;;16.27;9.55;;;2.70;99.90;;;;;;5074691;28;20048;-68
2023/03/19 03:04:25;;;;;;;14.65;8.55;;;2.70;99.90;;;;;;5074582;28;20128;-68
2023/03/19 03:06:51;;;;;;;15.55;9.38;;;2.70;99.90;;;;;;5075698;28;20032;-67
2023/03/19 03:09:17;;;;;;;14.45;8.75;;;2.70;99.90;;;;;;5075533;28;20029;-67
2023/03/19 03:11:42;;;;;;;16.00;9.07;;;2.70;99.90;;;;;;5074511;28;20032;-67
2023/03/19 03:14:08;;;;;;;19.67;9.90;;;2.70;99.90;;;;;;5075404;28;20028;-67
2023/03/19 03:16:34;;;;;;;15.02;8.63;;;2.70;99.90;;;;;;5075362;28;20033;-67
2023/03/19 03:19:01;;;;;;;16.20;8.88;;;2.70;99.90;;;;;;5075816;28;20024;-67
2023/03/19 03:21:27;;;;;;;14.70;8.80;;;2.60;99.90;;;;;;5074990;28;20043;-68
2023/03/19 03:23:52;;;;;;;17.00;8.77;;;2.50;99.90;;;;;;5075413;28;20452;-68
2023/03/19 03:26:18;;;;;;;12.77;9.02;;;2.50;99.90;;;;;;5075280;28;20060;-68
2023/03/19 03:28:44;;;;;;;14.57;9.02;;;2.50;99.90;;;;;;5074935;28;20028;-68
2023/03/19 03:31:10;;;;;;;14.23;8.45;;;2.50;99.90;;;;;;5073533;28;20103;-68
2023/03/19 03:33:36;;;;;;;14.88;9.00;;;2.50;99.90;;;;;;5074477;28;20514;-68
2023/03/19 03:36:02;;;;;;;13.32;9.02;;;2.50;99.90;;;;;;5075315;28;20028;-68
2023/03/19 03:38:28;;;;;;;18.27;8.52;;;2.40;99.90;;;;;;5073717;28;20353;-68
2023/03/19 03:40:53;;;;;;;18.15;9.68;;;2.50;99.90;;;;;;5074961;28;20032;-68
2023/03/19 03:43:20;;;;;;;16.27;8.63;;;2.40;99.90;;;;;;5074879;28;20036;-68
2023/03/19 03:45:46;;;;;;;17.80;9.60;;;2.40;99.90;;;;;;5074885;28;20024;-68
2023/03/19 03:48:15;;;;;;;15.93;9.15;;;2.30;99.90;;;;;;5074484;28;20380;-68
2023/03/19 03:50:41;;;;;;;16.35;9.50;;;2.30;99.90;;;;;;5073529;28;20036;-68
2023/03/19 03:53:07;;;;;;;17.00;9.60;;;2.30;99.90;;;;;;5073438;28;20033;-67
2023/03/19 03:55:33;;;;;;;14.73;9.82;;;2.30;99.90;;;;;;5074694;28;20021;-68
2023/03/19 03:57:59;;;;;;;18.55;9.82;;;2.30;99.90;;;;;;5074701;28;20020;-68
2023/03/19 04:00:25;;;;;;;16.17;9.52;;;2.20;99.90;;;;;;5074976;28;20029;-68
2023/03/19 04:02:51;;;;;;;17.60;10.32;;;2.20;99.90;;;;;;5076236;28;20502;-72
2023/03/19 04:05:17;;;;;;;19.45;10.40;;;2.20;99.90;;;;;;5076460;28;20029;-70
2023/03/19 04:07:44;;;;;;;18.80;9.50;;;2.20;99.90;;;;;;5076750;28;20021;-68
2023/03/19 04:10:10;;;;;;;16.15;9.45;;;2.20;99.90;;;;;;5077182;28;20028;-68
2023/03/19 04:12:38;;;;;;;17.80;10.68;;;2.20;99.90;;;;;;5077319;28;20033;-68
2023/03/19 04:15:09;;;;;;;19.10;10.02;;;2.20;99.90;;;;;;5074954;28;20025;-68
2023/03/19 04:17:35;;;;;;;18.63;10.38;;;2.20;99.90;;;;;;5074397;28;20077;-67
2023/03/19 04:20:03;;;;;;;15.93;9.55;;;2.20;99.90;;;;;;5074296;28;20448;-67
2023/03/19 04:22:30;;;;;;;16.60;9.80;;;2.20;99.90;;;;;;5074282;28;20036;-68
2023/03/19 04:24:56;;;;;;;20.05;10.23;;;2.10;99.90;;;;;;5072995;28;20029;-68
2023/03/19 04:27:21;;;;;;;19.23;10.27;;;2.10;99.90;;;;;;5074056;28;20033;-70
2023/03/19 04:29:47;;;;;;;24.85;10.43;;;2.10;99.90;;;;;;5074365;28;20028;-68
2023/03/19 04:32:14;;;;;;;22.15;10.27;;;2.00;99.90;;;;;;5075493;28;20029;-72
2023/03/19 04:34:40;;;;;;;15.95;9.98;;;2.00;99.90;;;;;;5075487;28;20379;-69
2023/03/19 04:37:09;;;;;;;15.73;10.27;;;2.00;99.90;;;;;;5078069;28;20017;-71
2023/03/19 04:39:35;;;;;;;15.73;8.98;;;1.90;99.90;;;;;;5077018;28;20415;-68
2023/03/19 04:42:00;;;;;;;16.63;9.50;;;1.90;99.90;;;;;;5076031;28;20048;-68
2023/03/19 04:44:26;;;;;;;19.75;9.75;;;1.80;99.90;;;;;;5074224;28;20033;-68
2023/03/19 04:46:52;;;;;;;16.75;9.95;;;1.80;99.90;;;;;;5073392;28;20060;-68
2023/03/19 04:49:18;;;;;;;15.68;10.05;;;1.70;99.90;;;;;;5073936;28;20024;-68
2023/03/19 04:51:44;;;;;;;18.85;10.45;;;1.70;99.90;;;;;;5073174;28;20037;-67
2023/03/19 04:54:09;;;;;;;19.58;10.35;;;1.60;99.90;;;;;;5073411;28;20024;-68
2023/03/19 04:56:35;;;;;;;16.02;10.13;;;1.60;99.90;;;;;;5073936;28;20048;-71
2023/03/19 04:59:01;;;;;;;17.85;11.20;;;1.50;99.90;;;;;;5073825;28;20452;-68
2023/03/19 05:01:27;;;;;;;15.25;9.90;;;1.50;99.90;;;;;;5074735;28;20465;-72
2023/03/19 05:03:52;;;;;;;15.98;9.75;;;1.50;99.90;;;;;;5074106;28;20041;-68
2023/03/19 05:06:18;;;;;;;19.77;10.05;;;1.50;99.90;;;;;;5074761;28;20078;-68
2023/03/19 05:08:45;;;;;;;17.92;10.23;;;1.50;99.90;;;;;;5073805;28;20380;-67
2023/03/19 05:11:11;;;;;;;15.88;9.80;;;1.50;99.90;;;;;;5074250;28;20495;-67
2023/03/19 05:13:36;;;;;;;19.50;10.10;;;1.50;99.90;;;;;;5074033;28;20029;-67
2023/03/19 05:16:02;;;;;;;18.38;10.40;;;1.50;99.90;;;;;;5072311;28;20108;-67
2023/03/19 05:18:28;;;;;;;18.70;11.18;;;1.60;99.90;;;;;;5073555;28;20025;-67
2023/03/19 05:20:54;;;;;;;18.80;11.23;;;1.60;99.90;;;;;;5073674;28;20444;-68
2023/03/19 05:23:20;;;;;;;20.85;10.27;;;1.70;99.90;;;;;;5072638;28;20519;-67
2023/03/19 05:25:46;;;;;;;18.92;10.52;;;1.80;99.90;;;;;;5077674;28;20111;-67
2023/03/19 05:28:12;;;;;;;16.17;10.27;;;1.80;99.90;;;;;;5078016;28;20028;-68
2023/03/19 05:30:38;;;;;;;22.10;10.50;;;1.80;99.90;;;;;;5077161;28;20531;-68
2023/03/19 05:33:04;;;;;;;15.70;9.55;;;1.90;99.90;;;;;;5079177;28;20037;-68
2023/03/19 05:35:30;;;;;;;18.35;10.75;;;1.90;99.90;;;;;;5076990;28;20171;-68
2023/03/19 05:37:56;;;;;;;18.63;9.80;;;2.00;99.90;;;;;;5077510;28;20114;-67
2023/03/19 05:40:22;;;;;;;15.27;9.45;;;2.00;99.90;;;;;;5077057;28;20028;-67
2023/03/19 05:42:48;;;;;;;19.23;10.35;;;2.10;99.90;;;;;;5077909;28;20028;-68
2023/03/19 05:45:16;;;;;;;17.08;10.38;;;2.20;99.90;;;;;;5078354;28;20043;-68
2023/03/19 05:47:42;;;;;;;16.67;10.25;;;2.30;99.90;;;;;;5078092;28;20062;-68
2023/03/19 05:50:09;;;;;;;18.05;10.80;;;2.40;99.90;;;;;;5076666;28;20024;-68
2023/03/19 05:52:35;;;;;;;22.15;10.50;;;2.50;99.90;;;;;;5077083;28;20051;-68
2023/03/19 05:55:01;;;;;;;16.77;10.00;;;2.50;99.90;;;;;;5078563;28;20545;-68
2023/03/19 05:57:26;;;;;;;18.98;11.18;;;2.60;99.90;;;;;;5077167;28;20021;-68
2023/03/19 05:59:52;;;;;;;19.05;10.48;;;2.70;99.90;;;;;;5077171;28;20491;-68
2023/03/19 06:02:17;;;;;;;18.38;10.52;;;2.80;99.90;;;;;;5078704;28;20391;-68
2023/03/19 06:04:43;;;;;;;21.05;11.10;;;2.90;99.90;;;;;;5076880;28;20025;-68
2023/03/19 06:07:09;;;;;;;16.05;10.18;;;3.00;99.90;;;;;;5077639;28;20106;-68
2023/03/19 06:09:35;;;;;;;16.63;9.65;;;3.00;99.90;;;;;;5075520;28;20032;-68
2023/03/19 06:12:01;;;;;;;18.13;10.23;;;3.20;99.90;;;;;;5075488;28;20028;-68
2023/03/19 06:14:26;;;;;;;15.55;10.52;;;3.40;99.90;;;;;;5076752;28;20112;-68
2023/03/19 06:16:52;;;;;;;18.77;10.50;;;3.80;99.90;;;;;;5076407;28;20035;-68
2023/03/19 06:19:18;;;;;;;20.00;10.77;;;4.20;99.90;;;;;;5075538;28;20032;-69
2023/03/19 06:21:43;;;;;;;20.33;10.57;;;4.60;99.90;;;;;;5075428;28;20029;-68
2023/03/19 06:24:09;;;;;;;15.43;9.98;;;4.80;99.90;;;;;;5075149;28;20086;-68
2023/03/19 06:26:36;;;;;;;13.45;9.57;;;5.20;99.90;;;;;;5075797;28;20029;-68
2023/03/19 06:29:02;;;;;;;18.15;10.63;;;5.50;99.90;;;;;;5075351;28;20111;-68
2023/03/19 06:31:27;;;;;;;14.10;9.65;;;5.90;99.90;;;;;;5075034;28;20077;-68
2023/03/19 06:33:54;;;;;;;15.57;10.18;;;6.30;99.90;;;;;;5076104;28;20024;-68
2023/03/19 06:36:20;;;;;;;15.77;10.25;;;6.50;99.90;;;;;;5074786;28;20038;-68
2023/03/19 06:38:45;;;;;;;14.73;9.52;;;6.70;99.90;;;;;;5075005;28;20456;-68
2023/03/19 06:41:11;;;;;;;17.25;11.10;;;7.00;99.90;;;;;;5076188;28;20084;-68
2023/03/19 06:43:40;;;;;;;13.85;9.90;;;7.20;99.90;;;;;;5075801;28;20416;-68
2023/03/19 06:46:06;;;;;;;15.07;10.05;;;7.40;99.90;;;;;;5074809;28;20028;-68
2023/03/19 06:48:33;;;;;;;14.07;9.15;;;7.50;99.90;;;;;;5074793;28;20373;-68
2023/03/19 06:50:58;;;;;;;15.85;10.45;;;7.70;99.90;;;;;;5075251;28;20025;-68
2023/03/19 06:53:24;;;;;;;12.77;8.95;;;7.60;99.90;;;;;;5074696;28;20043;-68
2023/03/19 06:55:50;;;;;;;18.88;10.10;;;7.80;99.90;;;;;;5074621;28;20448;-69
2023/03/19 06:58:16;;;;;;;15.88;9.80;;;7.90;99.90;;;;;;5076185;28;20032;-68
2023/03/19 07:00:42;;;;;;;15.23;9.55;;;8.10;99.90;;;;;;5075896;28;20078;-68
2023/03/19 07:03:09;;;;;;;15.02;10.07;;;8.20;99.90;;;;;;5075741;28;20136;-60
2023/03/19 07:05:34;;;;;;;15.18;10.23;;;8.30;99.90;;;;;;5074445;28;20074;-60
2023/03/19 07:08:01;;;;;;;13.18;9.80;;;8.40;99.90;;;;;;5075694;28;20026;-60
2023/03/19 07:10:26;;;;;;;13.77;9.85;;;8.60;99.90;;;;;;5074164;28;20051;-71
2023/03/19 07:12:52;;;;;;;14.27;9.45;;;8.70;98.90;;;;;;5055022;28;20473;-69
2023/03/19 07:15:20;;;;;;;17.48;10.65;;;8.80;98.50;;;;;;5056040;28;20028;-69
2023/03/19 07:17:46;;;;;;;13.27;9.45;;;9.10;97.10;;;;;;5056510;28;20365;-69
2023/03/19 07:20:13;;;;;;;16.55;9.32;;;9.00;96.60;;;;;;5055926;28;20029;-69
2023/03/19 07:22:39;;;;;;;17.70;9.48;;;9.50;96.50;;;;;;5055217;28;20045;-70
2023/03/19 07:25:06;;;;;;;12.93;9.27;;;10.00;94.70;;;;;;5054030;28;20064;-69
2023/03/19 07:27:31;;;;;;;11.48;9.07;;;10.30;93.00;;;;;;5051615;28;20024;-69
2023/03/19 07:29:57;;;;;;;14.32;9.55;;;10.60;91.90;;;;;;5035743;28;20056;-69
2023/03/19 07:32:23;;;;;;;12.45;9.43;;;10.70;90.20;;;;;;5035454;28;20167;-68
2023/03/19 07:34:49;;;;;;;15.27;10.10;;;11.00;88.90;;;;;;5035202;28;20030;-68
2023/03/19 07:37:15;;;;;;;12.88;9.55;;;11.00;87.60;;;;;;5033807;28;20033;-69
2023/03/19 07:39:40;;;;;;;14.30;10.38;;;11.00;87.50;;;;;;5034502;28;20029;-70
2023/03/19 07:42:06;;;;;;;15.93;10.20;;;11.10;86.20;;;;;;5035153;28;20041;-69
2023/03/19 07:44:32;;;;;;;11.65;9.38;;;11.20;84.60;;;;;;5035185;28;20025;-69
2023/03/19 07:46:58;;;;;;;17.20;10.15;;;11.30;83.60;;;;;;5032863;28;20030;-69
2023/03/19 07:49:24;;;;;;;19.13;10.80;;;11.40;82.70;;;;;;5034934;28;20457;-69
2023/03/19 07:51:50;;;;;;;12.95;9.75;;;11.30;81.90;;;;;;5035096;28;20480;-69
2023/03/19 07:54:16;;;;;;;14.55;10.30;;;11.20;82.10;;;;;;5034990;28;20022;-69
2023/03/19 07:56:42;;;;;;;15.02;10.73;;;11.50;82.00;;;;;;5034767;28;20128;-69
2023/03/19 07:59:07;;;;;;;14.55;10.02;;;11.80;79.90;;;;;;5034415;28;20029;-69
2023/03/19 08:01:34;;;;;;;13.82;10.00;;;12.10;77.90;;;;;;5033382;28;20074;-69
2023/03/19 08:04:00;;;;;;;13.02;9.57;;;12.40;76.80;;;;;;5033654;28;20488;-69
2023/03/19 08:06:25;;;;;;;14.63;9.93;;;12.50;75.00;;;;;;5033333;28;20025;-69
2023/03/19 08:08:51;;;;;;;14.20;10.00;;;12.30;74.80;;;;;;5034262;28;20026;-69
2023/03/19 08:11:17;;;;;;;14.90;10.10;;;12.50;74.70;;;;;;5034554;28;20354;-69
2023/03/19 08:13:42;;;;;;;16.70;10.52;;;13.00;72.70;;;;;;5034455;28;20040;-69
2023/03/19 08:16:08;;;;;;;12.95;10.13;;;12.70;71.40;;;;;;5033949;28;20025;-69
2023/03/19 08:18:35;;;;;;;13.68;10.05;;;12.80;71.40;;;;;;5034362;28;20517;-68
2023/03/19 08:21:01;;;;;;;14.25;9.95;;;12.80;71.00;;;;;;5034087;28;20025;-66
2023/03/19 08:23:27;;;;;;;15.13;11.00;;;13.10;71.10;;;;;;5034499;28;20072;-67
2023/03/19 08:25:54;;;;;;;13.02;9.73;;;13.30;69.20;;;;;;5032962;28;20053;-67
2023/03/19 08:28:20;;;;;;;11.98;10.10;;;13.50;67.90;;;;;;5034189;28;20032;-66
2023/03/19 08:30:46;;;;;;;15.90;9.95;;;13.50;67.50;;;;;;5032940;28;20030;-66
2023/03/19 08:33:11;;;;;;;14.30;10.48;;;13.30;67.70;;;;;;5032790;28;20507;-67
2023/03/19 08:35:37;;;;;;;12.73;9.98;;;13.30;67.70;;;;;;5034152;28;20037;-66
2023/03/19 08:38:03;;;;;;;14.43;9.90;;;13.10;67.70;;;;;;5034069;28;20480;-66
2023/03/19 08:40:29;;;;;;;15.07;9.85;;;13.00;68.30;;;;;;5034071;28;20065;-66
2023/03/19 08:42:54;;;;;;;15.95;10.48;;;13.20;68.20;;;;;;5033914;28;20120;-61
2023/03/19 08:45:21;;;;;;;14.00;10.38;;;13.40;66.50;;;;;;5033950;28;20025;-62
2023/03/19 08:47:47;;;;;;;16.38;11.73;;;13.70;65.50;;;;;;5032736;28;20026;-62
2023/03/19 08:50:14;;;;;;;15.55;10.65;;;13.70;64.50;;;;;;5034163;28;20025;-61
2023/03/19 08:52:39;;;;;;;12.55;9.70;;;13.60;65.30;;;;;;5032585;28;20461;-61
2023/03/19 08:55:07;;;;;;;13.18;10.60;;;13.40;65.40;;;;;;5033894;28;20061;-62
2023/03/19 08:57:33;;;;;;;16.48;10.95;;;13.10;66.20;;;;;;5033905;28;20025;-62
2023/03/19 08:59:59;;;;;;;15.48;10.30;;;12.80;66.70;;;;;;5034143;28;20033;-68
2023/03/19 09:02:24;;;;;;;12.82;11.07;;;12.70;66.90;;;;;;5034050;28;20058;-68
2023/03/19 09:04:50;;;;;;;14.65;11.10;;;12.90;67.10;;;;;;5032450;28;20454;-68
2023/03/19 09:07:16;;;;;;;14.73;10.95;;;13.20;66.40;;;;;;5033807;28;20022;-68
2023/03/19 09:09:43;;;;;;;15.95;10.65;;;13.20;65.20;;;;;;5033712;28;20101;-68
2023/03/19 09:12:15;;;;;;;13.35;9.48;;;13.40;65.20;;;;;;5032386;28;20176;-69
2023/03/19 09:14:42;;;;;;;16.35;11.18;;;13.70;64.70;;;;;;5032406;28;20029;-68
2023/03/19 09:17:08;;;;;;;14.63;9.48;;;13.90;63.70;;;;;;5032344;28;20033;-68
2023/03/19 09:19:34;;;;;;;13.30;10.20;;;14.30;63.30;;;;;;5032302;28;20084;-69
2023/03/19 09:22:00;;;;;;;13.38;10.50;;;14.70;61.20;;;;;;5032218;28;20560;-68
2023/03/19 09:24:26;;;;;;;15.63;10.75;;;14.40;61.30;;;;;;5033538;28;20068;-69
2023/03/19 09:26:52;;;;;;;15.10;10.98;;;14.40;60.70;;;;;;5032415;28;20125;-69
2023/03/19 09:29:18;;;;;;;14.90;10.77;;;14.60;60.30;;;;;;5032180;28;20029;-69
2023/03/19 09:31:43;;;;;;;14.85;10.45;;;14.20;60.10;;;;;;5033695;28;20025;-68
2023/03/19 09:34:09;;;;;;;14.07;9.73;;;14.30;61.00;;;;;;5033681;28;20029;-69
2023/03/19 09:36:36;;;;;;;14.55;10.20;;;14.70;60.20;;;;;;5033121;28;20457;-70
2023/03/19 09:39:03;;;;;;;12.63;10.70;;;14.70;59.30;;;;;;5033657;28;20454;-67
2023/03/19 09:41:31;;;;;;;12.00;10.32;;;15.30;59.20;;;;;;5032045;28;20029;-66
2023/03/19 09:44:00;;;;;;;13.35;10.15;;;15.30;58.00;;;;;;5031982;28;20034;-66
2023/03/19 09:46:40;;;;;;;13.50;10.13;;;15.90;57.10;;;;;;5033480;28;20029;-69
2023/03/19 09:49:12;;;;;;;13.13;9.95;;;16.70;55.30;;;;;;5032079;28;20028;-69
2023/03/19 09:52:22;;;;;;;11.48;9.70;;;17.10;53.60;;;;;;5031957;28;20087;-69
2023/03/19 09:54:53;;;;;;;16.25;10.70;;;17.10;52.00;;;;;;5027799;28;20042;-69
2023/03/19 09:57:19;;;;;;;13.10;9.88;;;17.30;52.30;;;;;;5032468;28;20076;-69
2023/03/19 09:59:47;;;;;;;13.90;10.25;;;17.90;51.20;;;;;;5033215;28;20104;-69
2023/03/19 10:02:42;;;;;;;13.20;10.35;;;18.40;49.60;;;;;;5031513;28;20081;-70
2023/03/19 10:05:22;;;;;;;14.82;10.38;;;18.50;49.60;;;;;;5032941;28;20468;-70
2023/03/19 10:08:26;;;;;;;14.07;10.80;;;18.60;48.50;;;;;;5033413;28;20385;-70
2023/03/19 10:11:06;;;;;;;14.88;10.88;;;19.20;47.30;;;;;;5034549;28;20025;-70
2023/03/19 10:13:54;;;;;;;13.75;10.70;;;19.20;47.00;;;;;;5035714;28;20030;-70
2023/03/19 10:16:23;;;;;;;14.85;10.85;;;18.80;46.60;;;;;;5035437;28;20025;-70
2023/03/19 10:18:52;;;;;;;12.77;11.45;;;18.30;47.70;;;;;;5036572;28;20032;-69
2023/03/19 10:21:33;;;;;;;12.95;11.00;;;17.70;48.20;;;;;;5035281;28;20033;-69
2023/03/19 10:24:04;;;;;;;13.57;10.18;;;17.80;48.70;;;;;;5035407;28;20045;-69
2023/03/19 10:26:34;;;;;;;14.25;11.48;;;17.60;48.90;;;;;;5036722;28;20453;-69
2023/03/19 10:29:10;;;;;;;14.90;11.63;;;17.50;49.20;;;;;;5035155;28;20026;-70
2023/03/19 10:32:08;;;;;;;14.77;11.18;;;16.80;48.90;;;;;;5036626;28;20064;-69
2023/03/19 10:34:36;;;;;;;15.80;11.70;;;15.60;51.50;;;;;;5035400;28;20426;-69
2023/03/19 10:37:11;;;;;;;14.73;10.17;;;16.20;52.20;;;;;;5036259;28;20017;-69
2023/03/19 10:39:40;;;;;;;13.55;10.50;;;16.50;50.90;;;;;;5035189;28;20374;-69
2023/03/19 10:42:45;;;;;;;12.57;11.00;;;17.30;50.50;;;;;;5034824;28;20493;-70
2023/03/19 10:45:26;;;;;;;14.65;11.00;;;17.80;48.60;;;;;;5035961;28;20381;-70
2023/03/19 10:47:54;;;;;;;14.90;11.15;;;18.20;48.60;;;;;;5036236;28;20021;-69
2023/03/19 10:50:33;;;;;;;14.40;10.38;;;18.30;48.00;;;;;;5035930;28;20116;-70
2023/03/19 10:53:02;;;;;;;;;;;18.50;47.70;;;;;;5036399;28;20041;-70
2023/03/19 10:55:31;;;;;;;;;;;18.60;47.10;;;;;;5036054;28;19909;-69
2023/03/19 10:58:17;;;;;;;15.85;11.43;;;18.50;46.60;;;;;;5035925;28;20066;-69
2023/03/19 11:00:46;;;;;;;14.98;10.55;;;17.60;48.70;;;;;;5035987;28;20060;-70
2023/03/19 11:03:32;;;;;;;15.80;9.88;;;18.20;48.00;;;;;;5033939;28;20481;-70
2023/03/19 11:06:18;;;;;;;16.52;10.60;;;18.70;47.00;;;;;;5035747;28;20037;-70
2023/03/19 11:08:50;;;;;;;15.10;11.18;;;19.00;46.50;;;;;;5035840;28;20021;-70
2023/03/19 11:11:33;;;;;;;17.33;10.93;;;19.20;45.70;;;;;;5034380;28;20378;-69
2023/03/19 11:14:16;;;;;;;13.90;10.98;;;19.80;44.90;;;;;;5034805;28;20083;-68
2023/03/19 11:16:58;;;;;;;14.07;10.98;;;20.30;44.30;;;;;;5035262;28;20477;-68
2023/03/19 11:19:33;;;;;;;13.38;11.05;;;20.60;43.40;;;;;;5034104;28;20026;-69
2023/03/19 11:22:13;;;;;;;15.93;10.77;;;20.50;43.10;;;;;;5034409;28;20043;-69
2023/03/19 11:24:41;;;;;;;15.70;10.98;;;20.70;42.90;;;;;;5035350;28;20075;-69
2023/03/19 11:27:08;;;;;;;14.07;10.88;;;21.20;42.10;;;;;;5035255;28;20049;-60
2023/03/19 11:29:42;;;;;;;13.02;10.90;;;20.80;42.50;;;;;;5035589;28;20037;-61
2023/03/19 11:32:23;;;;;;;14.13;11.52;;;20.50;42.10;;;;;;5034012;28;20047;-61
2023/03/19 11:35:10;;;;;;;18.02;10.90;;;20.30;42.90;;;;;;5033996;28;20021;-61
2023/03/19 11:37:45;;;;;;;15.65;11.10;;;19.70;43.50;;;;;;5035157;28;20033;-61
2023/03/19 11:40:22;;;;;;;14.40;11.48;;;19.00;44.50;;;;;;5035114;28;20056;-61
2023/03/19 11:43:03;;;;;;;15.77;11.35;;;19.10;44.50;;;;;;5034705;28;20106;-68
2023/03/19 11:45:36;;;;;;;15.82;10.65;;;19.30;44.30;;;;;;5034092;28;20076;-68
2023/03/19 11:48:15;;;;;;;15.15;10.80;;;19.40;44.10;;;;;;5033755;28;20121;-68
2023/03/19 11:51:04;;;;;;;13.05;10.80;;;19.40;43.60;;;;;;5033835;28;20026;-68
2023/03/19 11:53:40;;;;;;;;;;;19.30;44.10;;;;;;5035029;28;20481;-68
2023/03/19 11:56:40;;;;;;;13.55;10.07;;;19.50;44.10;;;;;;5034797;28;19951;-68
2023/03/19 11:59:38;;;;;;;13.98;10.68;;;20.30;42.80;;;;;;5033777;28;20140;-67
2023/03/19 12:02:39;;;;;;;13.53;10.10;;;21.10;41.90;;;;;;5028300;28;20052;-68
2023/03/19 12:05:25;;;;;;;18.38;11.10;;;21.50;40.60;;;;;;5029592;28;20036;-68
2023/03/19 12:08:14;;;;;;;15.35;10.82;;;20.90;41.30;;;;;;5033384;28;20025;-67
2023/03/19 12:10:52;;;;;;;15.57;11.43;;;19.70;42.60;;;;;;5034458;28;20482;-63
2023/03/19 12:13:41;;;;;;;11.55;9.98;;;19.00;44.20;;;;;;5034442;28;20037;-63
2023/03/19 12:16:25;;;;;;;14.73;10.63;;;18.80;44.80;;;;;;5033095;28;20021;-63
2023/03/19 12:19:11;;;;;;;15.90;10.18;;;18.70;45.40;;;;;;5033049;28;20036;-66
2023/03/19 12:21:47;;;;;;;16.02;11.88;;;18.50;45.60;;;;;;5034284;28;20044;-66
2023/03/19 12:24:19;;;;;;;13.10;11.15;;;18.20;46.00;;;;;;5034514;28;20037;-65
2023/03/19 12:27:09;;;;;;;14.30;11.60;;;18.40;46.00;;;;;;5032963;28;20376;-66
2023/03/19 12:30:00;;;;;;;13.90;10.95;;;19.00;45.60;;;;;;5034249;28;20029;-66
2023/03/19 12:32:32;;;;;;;20.42;10.88;;;19.90;43.70;;;;;;5032445;28;20037;-66
2023/03/19 12:35:03;;;;;;;14.13;11.10;;;20.20;43.10;;;;;;5034069;28;20030;-66
2023/03/19 12:37:41;;;;;;;14.10;10.27;;;20.00;42.80;;;;;;5034402;28;20350;-66
2023/03/19 12:40:28;;;;;;;14.02;10.68;;;20.10;42.80;;;;;;5032804;28;20025;-66
2023/03/19 12:43:00;;;;;;;13.88;10.68;;;20.10;42.50;;;;;;5033026;28;20132;-66
2023/03/19 12:45:46;;;;;;;14.88;10.98;;;20.60;42.30;;;;;;5033763;28;20505;-67
2023/03/19 12:48:25;;;;;;;13.10;10.55;;;20.90;41.60;;;;;;5033716;28;20362;-68
2023/03/19 12:50:56;;;;;;;13.93;10.95;;;21.10;40.90;;;;;;5033982;28;20021;-66